Time;durP1;ratioP1;P1;durP2;ratioP2;P2;SDS_P1;SDS_P2;PMS_P1;PMS_P2;Temp;Humidity;BMP_temperature;BMP_pressure;BME280_temperature;BME280_humidity;BME280_pressure;Samples;Min_cycle;Max_cycle;Signal;HPM_P1;HPM_P2
2022/12/02 00:05:01;;;;;;;11.63;9.80;;;;;;;19.59;48.94;97354.31;10554402;28;20086;-53
2022/12/02 00:10:31;;;;;;;12.25;10.02;;;;;;;19.57;48.93;97351.13;10540744;28;20469;-53
2022/12/02 00:15:55;;;;;;;10.27;9.13;;;;;;;19.56;49.04;97349.53;10554037;28;20055;-53
2022/12/02 00:21:15;;;;;;;11.43;9.43;;;;;;;19.54;49.02;97344.44;10540410;28;20093;-54
2022/12/02 00:26:34;;;;;;;12.95;9.48;;;;;;;19.52;48.97;97338.56;10524670;28;20564;-53
2022/12/02 00:31:54;;;;;;;10.43;9.32;;;;;;;19.51;48.99;97339.66;10539851;28;20048;-53
2022/12/02 00:37:13;;;;;;;11.05;9.30;;;;;;;19.51;49.00;97336.16;10539198;28;20071;-53
2022/12/02 00:42:33;;;;;;;10.90;9.15;;;;;;;19.49;48.92;97333.75;10533797;28;20387;-53
2022/12/02 00:47:52;;;;;;;10.25;9.15;;;;;;;19.47;49.02;97338.69;10527494;28;20097;-53
2022/12/02 00:53:11;;;;;;;11.05;9.05;;;;;;;19.45;48.99;97332.78;10538843;28;20063;-52
2022/12/02 00:58:31;;;;;;;11.15;9.50;;;;;;;19.46;49.14;97333.56;10537836;28;20819;-53
2022/12/02 01:03:51;;;;;;;10.25;8.90;;;;;;;19.43;48.91;97335.00;10538287;28;20048;-53
2022/12/02 01:09:11;;;;;;;10.52;9.07;;;;;;;19.41;48.99;97334.53;10538403;28;20052;-53
2022/12/02 01:14:30;;;;;;;9.88;8.88;;;;;;;19.40;48.94;97324.00;10538021;28;20059;-53
2022/12/02 01:19:50;;;;;;;9.73;8.73;;;;;;;19.40;48.85;97329.41;10538455;28;20242;-53
2022/12/02 01:25:10;;;;;;;9.30;8.30;;;;;;;19.39;48.99;97319.75;10530442;28;20058;-54
2022/12/02 01:30:29;;;;;;;9.50;8.50;;;;;;;19.36;48.89;97315.72;10551386;28;20097;-53
2022/12/02 01:35:48;;;;;;;10.40;8.93;;;;;;;19.34;48.85;97310.63;10528060;28;20055;-54
2022/12/02 01:41:08;;;;;;;9.20;8.25;;;;;;;19.33;48.82;97308.25;10510306;28;20056;-54
2022/12/02 01:46:28;;;;;;;9.40;8.40;;;;;;;19.32;48.77;97306.66;10551233;28;20036;-54
2022/12/02 01:51:47;;;;;;;8.95;8.05;;;;;;;19.30;48.91;97292.66;10535187;28;20048;-54
2022/12/02 01:57:12;;;;;;;8.85;7.95;;;;;;;19.29;48.79;97296.47;10553145;28;20059;-53
2022/12/02 02:02:36;;;;;;;8.82;7.93;;;;;;;19.28;48.61;97300.28;10545195;28;20067;-53
2022/12/02 02:08:01;;;;;;;9.88;8.13;;;;;;;19.27;48.79;97296.00;10534558;28;20055;-53
2022/12/02 02:13:21;;;;;;;10.32;7.70;;;;;;;19.25;48.75;97296.31;10519615;28;20055;-53
2022/12/02 02:18:40;;;;;;;10.57;8.45;;;;;;;19.23;48.66;97278.78;10545023;28;20055;-53
2022/12/02 02:24:00;;;;;;;8.80;7.70;;;;;;;19.22;48.87;97275.28;10522020;28;20052;-53
2022/12/02 02:29:20;;;;;;;9.45;8.35;;;;;;;19.21;48.80;97278.31;10523999;28;20082;-53
2022/12/02 02:34:41;;;;;;;9.07;7.65;;;;;;;19.19;48.77;97281.34;10529235;28;20427;-53
2022/12/02 02:40:01;;;;;;;9.35;8.35;;;;;;;19.17;48.93;97278.16;10544687;28;20063;-53
2022/12/02 02:45:25;;;;;;;9.32;8.20;;;;;;;19.16;48.81;97282.72;10528886;28;20055;-53
2022/12/02 02:50:46;;;;;;;9.23;7.57;;;;;;;19.15;48.83;97280.34;10525807;28;20084;-54
2022/12/02 02:56:08;;;;;;;9.32;7.47;;;;;;;19.12;48.77;97287.16;10521638;28;20063;-54
2022/12/02 03:01:35;;;;;;;9.55;7.65;;;;;;;19.11;48.75;97276.66;10527879;28;20052;-53
2022/12/02 03:06:54;;;;;;;7.97;7.20;;;;;;;19.11;48.92;97273.97;10520552;28;20111;-53
2022/12/02 03:12:14;;;;;;;9.00;7.65;;;;;;;19.09;48.73;97265.38;10528020;28;20048;-54
2022/12/02 03:17:34;;;;;;;9.25;7.70;;;;;;;19.07;48.91;97263.00;10542972;28;20044;-53
2022/12/02 03:22:54;;;;;;;9.90;7.78;;;;;;;19.05;48.80;97259.81;10527859;28;20106;-54
2022/12/02 03:28:13;;;;;;;8.55;7.65;;;;;;;19.05;48.82;97259.00;10542644;28;20051;-53
2022/12/02 03:33:33;;;;;;;8.52;7.57;;;;;;;19.03;48.78;97262.00;10527135;28;20055;-53
2022/12/02 03:38:53;;;;;;;9.15;7.38;;;;;;;19.02;48.63;97260.44;10542109;28;20044;-53
2022/12/02 03:44:14;;;;;;;7.93;6.88;;;;;;;19.01;48.67;97258.81;10537268;28;20052;-53
2022/12/02 03:49:35;;;;;;;8.18;7.38;;;;;;;19.00;48.60;97254.53;10555126;28;20047;-53
2022/12/02 03:54:54;;;;;;;8.13;7.00;;;;;;;18.98;48.65;97245.94;10541354;28;20048;-53
2022/12/02 04:00:15;;;;;;;8.35;7.30;;;;;;;18.97;48.79;97238.94;10533027;28;20052;-53
2022/12/02 04:05:34;;;;;;;7.68;6.47;;;;;;;18.95;48.72;97236.56;10540776;28;20056;-53
2022/12/02 04:10:53;;;;;;;8.40;7.55;;;;;;;18.94;48.78;97243.06;10540806;28;20433;-53
2022/12/02 04:16:12;;;;;;;7.82;6.90;;;;;;;18.92;48.75;97239.88;10540874;28;20048;-54
2022/12/02 04:21:32;;;;;;;7.65;6.85;;;;;;;18.91;48.63;97232.09;10530323;28;20504;-53
2022/12/02 04:26:51;;;;;;;7.03;6.20;;;;;;;18.88;48.65;97227.31;10553505;28;20055;-53
2022/12/02 04:32:10;;;;;;;7.88;7.00;;;;;;;18.88;48.66;97230.81;10524771;28;20045;-53
2022/12/02 04:37:30;;;;;;;7.65;6.60;;;;;;;18.87;48.53;97228.41;10539847;28;20051;-53
2022/12/02 04:42:49;;;;;;;9.40;6.38;;;;;;;18.85;48.57;97225.22;10539884;28;20048;-53
2022/12/02 04:48:08;;;;;;;7.32;6.63;;;;;;;18.83;48.49;97225.53;10538965;28;20059;-53
2022/12/02 04:53:28;;;;;;;7.22;6.53;;;;;;;18.81;48.62;97225.03;10528891;28;20051;-54
2022/12/02 04:58:47;;;;;;;7.80;6.97;;;;;;;18.81;48.53;97226.94;10537468;28;20105;-53
2022/12/02 05:04:06;;;;;;;7.40;6.43;;;;;;;18.78;48.46;97222.94;10538747;28;20054;-54
2022/12/02 05:09:26;;;;;;;7.35;6.57;;;;;;;18.77;48.52;97224.03;10538769;28;20062;-53
2022/12/02 05:14:45;;;;;;;6.22;5.63;;;;;;;18.76;48.49;97228.66;10525075;28;20048;-54
2022/12/02 05:20:05;;;;;;;7.43;6.20;;;;;;;18.74;48.57;97222.75;10551923;28;20056;-51
2022/12/02 05:25:25;;;;;;;6.80;6.10;;;;;;;18.74;48.91;97222.75;10538438;28;20059;-53
2022/12/02 05:30:44;;;;;;;7.53;6.40;;;;;;;18.73;49.06;97229.25;10537435;28;20052;-54
2022/12/02 05:36:04;;;;;;;10.20;9.10;;;;;;;18.75;47.50;97227.03;10538012;28;20380;-52
2022/12/02 05:41:23;;;;;;;10.38;8.27;;;;;;;18.74;48.26;97230.84;10538004;28;20048;-52
2022/12/02 05:46:43;;;;;;;10.52;8.50;;;;;;;18.73;48.13;97231.94;10531784;28;20113;-52
2022/12/02 05:52:12;;;;;;;10.32;8.40;;;;;;;18.73;48.27;97233.84;10532617;28;20109;-54
2022/12/02 05:57:32;;;;;;;10.63;8.85;;;;;;;18.74;48.40;97233.56;10536767;28;20052;-53
2022/12/02 06:02:53;;;;;;;13.20;9.23;;;;;;;18.74;48.20;97233.56;10537109;28;20427;-53
2022/12/02 06:08:22;;;;;;;15.38;8.80;;;;;;;18.76;48.12;97235.94;10522002;28;20051;-51
2022/12/02 06:13:42;;;;;;;17.90;10.07;;;;;;;18.76;48.16;97222.47;10537407;28;20063;-53
2022/12/02 06:19:13;;;;;;;20.00;10.35;;;;;;;18.77;48.31;97229.44;10537181;28;20109;-52
2022/12/02 06:24:33;;;;;;;19.02;9.77;;;;;;;18.80;48.26;97233.44;10517959;28;20052;-52
2022/12/02 06:29:58;;;;;;;18.98;9.88;;;;;;;18.80;48.34;97236.97;10534601;28;20529;-53
2022/12/02 06:35:22;;;;;;;17.00;10.20;;;;;;;18.82;48.65;97242.03;10515252;28;20491;-52
2022/12/02 06:40:41;;;;;;;16.52;10.02;;;;;;;18.83;48.56;97249.03;10525701;28;20052;-53
2022/12/02 06:46:00;;;;;;;15.93;9.52;;;;;;;18.85;48.63;97244.13;10542947;28;20101;-53
2022/12/02 06:51:20;;;;;;;14.40;9.55;;;;;;;18.87;48.63;97236.50;10516174;28;20052;-53
2022/12/02 06:56:40;;;;;;;18.00;9.80;;;;;;;18.89;48.77;97245.09;10527664;28;20052;-52
2022/12/02 07:02:01;;;;;;;16.45;9.60;;;;;;;18.90;48.77;97247.50;10546527;28;20389;-52
2022/12/02 07:07:27;;;;;;;13.48;9.70;;;;;;;18.93;48.71;97252.28;10520294;28;20047;-52
2022/12/02 07:12:47;;;;;;;16.15;8.98;;;;;;;18.95;48.57;97243.84;10536088;28;20059;-53
2022/12/02 07:18:16;;;;;;;15.52;9.30;;;;;;;18.96;49.03;97248.16;10541482;28;20059;-53
2022/12/02 07:23:35;;;;;;;13.02;9.00;;;;;;;18.98;48.97;97234.38;10537271;28;20051;-52
2022/12/02 07:28:58;;;;;;;13.13;8.88;;;;;;;19.00;49.10;97229.44;10541761;28;20047;-52
2022/12/02 07:34:17;;;;;;;12.95;9.00;;;;;;;19.02;48.84;97236.13;10527028;28;20067;-52
2022/12/02 07:39:36;;;;;;;13.23;9.50;;;;;;;19.04;49.16;97231.22;10542262;28;20044;-50
2022/12/02 07:44:56;;;;;;;13.75;8.75;;;;;;;19.08;48.91;97229.47;10555447;28;20040;-53
2022/12/02 07:50:16;;;;;;;11.32;8.38;;;;;;;19.10;48.97;97242.69;10541699;28;20044;-53
2022/12/02 07:55:35;;;;;;;13.80;9.30;;;;;;;19.13;48.84;97250.13;10535611;28;20063;-53
2022/12/02 08:00:55;;;;;;;13.30;8.57;;;;;;;19.13;48.87;97237.47;10537394;28;20052;-53
2022/12/02 08:06:14;;;;;;;12.65;8.15;;;;;;;19.16;48.78;97244.91;10552491;28;20040;-53
2022/12/02 08:11:34;;;;;;;10.68;8.20;;;;;;;19.21;48.84;97251.28;10540717;28;20093;-53
2022/12/02 08:16:53;;;;;;;11.52;8.15;;;;;;;19.23;48.91;97254.47;10540699;28;20056;-53
2022/12/02 08:22:12;;;;;;;12.32;8.65;;;;;;;19.24;48.71;97245.28;10540440;28;20056;-53
2022/12/02 08:27:33;;;;;;;10.40;8.43;;;;;;;19.27;48.45;97247.38;10540384;28;20131;-53
2022/12/02 08:32:52;;;;;;;11.55;8.10;;;;;;;19.30;48.35;97238.63;10539963;28;20067;-53
2022/12/02 08:38:12;;;;;;;11.50;7.88;;;;;;;19.32;48.31;97234.50;10539661;28;20055;-53
2022/12/02 08:43:31;;;;;;;11.15;7.63;;;;;;;19.35;48.19;97235.81;10539086;28;20538;-53
2022/12/02 08:48:50;;;;;;;12.20;7.95;;;;;;;19.36;48.02;97231.97;10528717;28;20056;-53
2022/12/02 08:54:10;;;;;;;11.18;8.30;;;;;;;19.38;48.14;97237.88;10541277;28;20036;-53
2022/12/02 08:59:29;;;;;;;10.13;7.32;;;;;;;19.41;48.06;97250.75;10539295;28;20113;-53
2022/12/02 09:04:48;;;;;;;11.60;8.20;;;;;;;19.43;48.06;97248.53;10532624;28;20056;-53
2022/12/02 09:10:09;;;;;;;12.32;7.72;;;;;;;19.46;48.27;97239.00;10537471;28;20048;-51
2022/12/02 09:15:29;;;;;;;13.02;8.68;;;;;;;19.49;47.99;97246.50;10538588;28;20062;-52
2022/12/02 09:20:48;;;;;;;10.45;7.95;;;;;;;19.49;48.03;97236.47;10540355;28;20044;-52
2022/12/02 09:26:07;;;;;;;8.55;7.22;;;;;;;19.52;47.98;97232.34;10537910;28;20052;-53
2022/12/02 09:31:27;;;;;;;12.20;8.20;;;;;;;19.54;47.79;97239.06;10538312;28;20044;-53
2022/12/02 09:36:46;;;;;;;14.05;7.45;;;;;;;19.56;48.01;97236.84;10538058;28;20109;-53
2022/12/02 09:42:06;;;;;;;9.52;7.50;;;;;;;19.59;47.67;97235.41;10538026;28;20499;-52
2022/12/02 09:47:27;;;;;;;8.50;7.13;;;;;;;19.62;47.76;97231.25;10510299;28;20427;-53
2022/12/02 09:52:47;;;;;;;9.85;7.40;;;;;;;19.63;47.68;97228.25;10536443;28;20052;-53
2022/12/02 09:58:11;;;;;;;9.75;7.72;;;;;;;19.66;47.69;97229.53;10538009;28;20071;-53
2022/12/02 10:03:30;;;;;;;11.07;8.13;;;;;;;19.66;47.49;97219.53;10538114;28;20052;-53
2022/12/02 10:08:51;;;;;;;9.05;7.18;;;;;;;19.67;47.46;97223.81;10537593;28;20044;-53
2022/12/02 10:14:12;;;;;;;9.60;7.50;;;;;;;19.70;47.38;97225.91;10522329;28;20075;-54
2022/12/02 10:19:32;;;;;;;9.07;7.28;;;;;;;19.73;47.38;97219.88;10539958;28;20056;-53
2022/12/02 10:24:51;;;;;;;8.48;7.25;;;;;;;19.74;47.49;97215.28;10558689;28;20148;-53
2022/12/02 10:30:17;;;;;;;9.27;7.00;;;;;;;19.77;47.46;97211.94;10536495;28;20066;-52
2022/12/02 10:35:48;;;;;;;9.02;6.82;;;;;;;19.78;47.17;97204.63;10544787;28;20060;-53
2022/12/02 10:41:14;;;;;;;9.95;7.03;;;;;;;19.81;47.41;97212.91;10528145;28;20059;-53
2022/12/02 10:46:33;;;;;;;9.15;6.80;;;;;;;19.82;47.35;97203.69;10544534;28;20048;-53
2022/12/02 10:51:55;;;;;;;7.82;6.70;;;;;;;19.85;47.37;97200.34;10536051;28;20441;-54
2022/12/02 10:57:35;;;;;;;8.65;7.00;;;;;;;19.86;47.30;97209.25;10528806;28;20177;-54
2022/12/02 11:02:57;;;;;;;9.27;6.88;;;;;;;19.90;47.46;97211.00;10542908;28;20060;-53
2022/12/02 11:08:27;;;;;;;7.63;6.40;;;;;;;19.90;47.25;97202.91;10542923;28;20048;-54
2022/12/02 11:14:05;;;;;;;8.32;6.97;;;;;;;19.92;47.40;97194.47;10543333;28;20048;-52
2022/12/02 11:19:33;;;;;;;7.55;6.50;;;;;;;19.94;47.37;97193.03;10531337;28;20048;-53
2022/12/02 11:24:53;;;;;;;8.27;6.80;;;;;;;19.97;47.20;97180.00;10517801;28;20052;-53
2022/12/02 11:30:15;;;;;;;7.90;6.80;;;;;;;19.98;47.18;97187.00;10541800;28;20051;-52
2022/12/02 11:36:10;;;;;;;7.85;6.60;;;;;;;20.00;47.13;97184.78;10548231;28;20036;-53
2022/12/02 11:41:51;;;;;;;8.27;6.97;;;;;;;20.01;47.14;97179.03;10527458;28;20048;-52
2022/12/02 11:47:30;;;;;;;8.63;6.78;;;;;;;20.04;47.04;97183.03;10525863;28;20056;-53
2022/12/02 11:52:53;;;;;;;7.93;6.55;;;;;;;20.04;47.05;97181.13;10541559;28;20056;-53
2022/12/02 11:58:22;;;;;;;7.20;6.50;;;;;;;20.07;46.98;97172.38;10541675;28;20113;-52
2022/12/02 12:03:43;;;;;;;8.27;6.35;;;;;;;20.08;47.02;97175.88;10554833;28;20055;-53
2022/12/02 12:09:09;;;;;;;8.48;6.20;;;;;;;20.09;46.93;97177.44;10540989;28;20048;-53
2022/12/02 12:14:29;;;;;;;7.32;6.45;;;;;;;20.11;47.08;97175.22;10525859;28;20060;-52
2022/12/02 12:19:49;;;;;;;7.03;6.03;;;;;;;20.12;46.99;97174.13;10540009;28;20487;-53
2022/12/02 12:25:31;;;;;;;7.72;6.45;;;;;;;20.14;47.06;97166.47;10540921;28;20097;-52
2022/12/02 12:30:50;;;;;;;7.03;6.32;;;;;;;20.15;47.04;97159.97;10529476;28;20483;-53
2022/12/02 12:36:09;;;;;;;6.63;5.95;;;;;;;20.18;46.92;97166.63;10540455;28;20048;-52
2022/12/02 12:41:30;;;;;;;7.53;6.20;;;;;;;20.20;47.03;97156.28;10539384;28;20074;-52
2022/12/02 12:46:50;;;;;;;6.70;6.00;;;;;;;20.20;46.97;97148.97;10539430;28;20075;-52
2022/12/02 12:52:09;;;;;;;7.65;6.25;;;;;;;20.21;47.02;97150.56;10530984;28;20376;-54
2022/12/02 12:57:28;;;;;;;6.88;5.88;;;;;;;20.23;46.88;97142.94;10539528;28;20075;-53
2022/12/02 13:02:48;;;;;;;6.43;5.70;;;;;;;20.25;46.82;97140.69;10519862;28;20055;-53
2022/12/02 13:08:07;;;;;;;7.72;6.20;;;;;;;20.26;46.91;97138.78;10552291;28;20040;-53
2022/12/02 13:13:28;;;;;;;7.03;5.88;;;;;;;20.27;46.80;97141.16;10526986;28;20056;-53
2022/12/02 13:18:48;;;;;;;6.75;5.90;;;;;;;20.29;46.80;97149.75;10538540;28;20048;-53
2022/12/02 13:24:07;;;;;;;6.50;5.80;;;;;;;20.30;46.89;97145.13;10538744;28;20399;-53
2022/12/02 13:29:27;;;;;;;6.63;5.97;;;;;;;20.32;46.70;97140.19;10537724;28;20048;-53
2022/12/02 13:34:47;;;;;;;6.20;5.60;;;;;;;20.33;46.89;97148.00;10545485;28;20044;-54
2022/12/02 13:40:08;;;;;;;7.38;6.22;;;;;;;20.33;46.75;97148.00;10538252;28;20055;-53
2022/12/02 13:45:29;;;;;;;6.50;5.78;;;;;;;20.35;46.82;97145.00;10537130;28;20495;-53
2022/12/02 13:50:48;;;;;;;8.55;7.65;;;;;;;20.35;43.19;97142.28;10525219;28;20041;-53
2022/12/02 13:56:07;;;;;;;9.13;7.35;;;;;;;20.38;45.21;97141.63;10545530;28;20052;-53
2022/12/02 14:01:28;;;;;;;9.05;7.75;;;;;;;20.39;45.40;97143.22;10527898;28;20052;-52
2022/12/02 14:06:49;;;;;;;8.90;7.53;;;;;;;20.41;45.40;97146.41;10516334;28;20044;-53
2022/12/02 14:12:09;;;;;;;12.90;7.82;;;;;;;20.42;45.33;97147.19;10545529;28;20048;-52
2022/12/02 14:17:28;;;;;;;8.57;7.70;;;;;;;20.42;45.26;97147.97;10536197;28;20056;-52
2022/12/02 14:22:48;;;;;;;11.60;7.85;;;;;;;20.42;45.58;97144.47;10545623;28;20052;-52
2022/12/02 14:28:07;;;;;;;8.82;7.35;;;;;;;20.42;45.25;97147.97;10532590;28;20048;-53
2022/12/02 14:33:27;;;;;;;10.30;7.45;;;;;;;20.43;45.51;97146.88;10544891;28;20056;-51
2022/12/02 14:38:46;;;;;;;8.43;7.28;;;;;;;20.45;45.69;97144.66;10544655;28;20059;-58
2022/12/02 14:44:06;;;;;;;10.63;7.20;;;;;;;20.46;45.37;97145.44;10557801;28;20032;-47
2022/12/02 14:49:26;;;;;;;9.85;7.18;;;;;;;20.46;45.36;97143.50;10544270;28;20048;-46
2022/12/02 14:54:46;;;;;;;7.80;6.97;;;;;;;20.48;45.47;97157.53;10496613;28;20052;-49
2022/12/02 15:00:06;;;;;;;7.90;7.07;;;;;;;20.50;45.53;97149.06;10552507;28;20411;-47
2022/12/02 15:05:25;;;;;;;8.50;7.40;;;;;;;20.51;45.46;97145.28;10543661;28;20458;-47
2022/12/02 15:10:45;;;;;;;8.02;6.60;;;;;;;20.51;45.50;97143.34;10556946;28;20044;-48
2022/12/02 15:16:05;;;;;;;8.27;7.05;;;;;;;20.51;45.60;97145.28;10543314;28;20052;-46
2022/12/02 15:21:25;;;;;;;7.15;6.45;;;;;;;20.51;45.69;97153.38;10540673;28;20067;-46
2022/12/02 15:26:44;;;;;;;7.43;6.30;;;;;;;20.51;45.75;97150.69;10534989;28;20601;-49
2022/12/02 15:32:04;;;;;;;7.60;6.55;;;;;;;20.52;45.76;97146.84;10541664;28;20071;-51
2022/12/02 15:37:24;;;;;;;7.72;6.82;;;;;;;20.51;46.11;97143.34;10542035;28;20056;-50
2022/12/02 15:42:43;;;;;;;7.57;6.82;;;;;;;20.50;46.18;97144.47;10542460;28;20044;-52
2022/12/02 15:48:03;;;;;;;8.10;6.70;;;;;;;20.49;46.38;97142.88;10541455;28;20052;-53
2022/12/02 15:53:22;;;;;;;9.63;6.55;;;;;;;20.50;46.01;97149.06;10531753;28;20384;-54
2022/12/02 15:58:42;;;;;;;7.75;6.63;;;;;;;20.50;46.21;97149.06;10536522;28;20105;-53
2022/12/02 16:04:01;;;;;;;7.57;6.30;;;;;;;20.48;46.32;97146.72;10540556;28;20054;-51
2022/12/02 16:09:21;;;;;;;7.60;6.80;;;;;;;20.48;46.10;97143.19;10553416;28;20032;-50
2022/12/02 16:14:40;;;;;;;9.77;6.35;;;;;;;20.47;46.19;97144.31;10539675;28;20063;-51
2022/12/02 16:20:00;;;;;;;9.32;6.30;;;;;;;20.45;46.20;97146.56;10540325;28;20063;-52
2022/12/02 16:25:19;;;;;;;7.32;6.07;;;;;;;20.44;46.10;97148.44;10552215;28;20051;-53
2022/12/02 16:30:38;;;;;;;8.68;5.95;;;;;;;20.44;46.11;97144.97;10533186;28;20048;-53
2022/12/02 16:35:58;;;;;;;9.98;6.15;;;;;;;20.42;46.33;97147.19;10541968;28;20400;-50
2022/12/02 16:41:17;;;;;;;8.15;6.03;;;;;;;20.42;46.34;97158.81;10538429;28;20067;-47
2022/12/02 16:46:37;;;;;;;7.93;6.10;;;;;;;20.41;46.41;97153.72;10524376;28;20058;-48
2022/12/02 16:51:57;;;;;;;7.40;6.32;;;;;;;20.38;46.38;97152.44;10532079;28;20044;-52
2022/12/02 16:57:17;;;;;;;6.80;6.10;;;;;;;20.37;46.42;97160.91;10529747;28;20059;-55
2022/12/02 17:02:36;;;;;;;8.15;6.00;;;;;;;20.37;46.45;97152.78;10539190;28;20048;-54
2022/12/02 17:07:56;;;;;;;7.75;5.97;;;;;;;20.35;46.50;97161.22;10525286;28;20488;-45
2022/12/02 17:13:15;;;;;;;7.40;5.95;;;;;;;20.34;46.89;97156.91;10536585;28;20052;-52
2022/12/02 17:18:35;;;;;;;6.25;5.53;;;;;;;20.32;46.80;97165.34;10525388;28;20054;-54
2022/12/02 17:23:54;;;;;;;7.90;5.45;;;;;;;20.30;46.71;97159.47;10538446;28;20056;-51
2022/12/02 17:29:14;;;;;;;8.07;6.22;;;;;;;20.29;46.77;97174.13;10550915;28;20040;-54
2022/12/02 17:34:34;;;;;;;9.20;5.70;;;;;;;20.28;46.77;97175.22;10536229;28;20040;-54
2022/12/02 17:39:53;;;;;;;6.95;5.75;;;;;;;20.26;46.78;97172.03;10551601;28;20514;-53
2022/12/02 17:45:13;;;;;;;5.78;5.28;;;;;;;20.25;46.70;97180.50;10537812;28;20074;-53
2022/12/02 17:50:32;;;;;;;6.35;5.75;;;;;;;20.23;46.76;97178.09;10536721;28;20048;-52
2022/12/02 17:55:51;;;;;;;7.28;5.40;;;;;;;20.22;46.93;97175.72;10532364;28;20059;-52
2022/12/02 18:01:11;;;;;;;5.90;5.30;;;;;;;20.21;47.25;97183.03;10542873;28;20063;-48
2022/12/02 18:06:30;;;;;;;5.50;4.97;;;;;;;20.20;47.06;97183.34;10537544;28;20052;-50
2022/12/02 18:11:50;;;;;;;6.80;5.50;;;;;;;20.19;47.32;97181.75;10545291;28;20483;-50
2022/12/02 18:17:10;;;;;;;9.45;5.38;;;;;;;20.16;47.23;97183.19;10537177;28;20052;-51
2022/12/02 18:22:30;;;;;;;6.88;5.38;;;;;;;20.14;47.34;97180.00;10537297;28;20101;-53
2022/12/02 18:27:50;;;;;;;5.63;5.10;;;;;;;20.11;47.97;97184.16;10514984;28;20056;-53
2022/12/02 18:33:09;;;;;;;14.77;7.22;;;;;;;20.12;48.41;97179.53;10497882;28;20057;-52
2022/12/02 18:38:29;;;;;;;24.23;11.40;;;;;;;20.10;48.76;97177.13;10506976;28;20053;-54
2022/12/02 18:43:48;;;;;;;27.38;11.98;;;;;;;20.10;49.42;97179.84;10505450;28;20052;-51
2022/12/02 18:49:08;;;;;;;25.70;12.68;;;;;;;20.09;49.51;97175.56;10526247;28;20051;-53
2022/12/02 18:54:28;;;;;;;25.17;12.27;;;;;;;20.07;49.71;97174.25;10514727;28;20059;-54
2022/12/02 18:59:48;;;;;;;19.80;10.45;;;;;;;20.06;49.36;97161.88;10506154;28;20053;-54
2022/12/02 19:05:08;;;;;;;20.33;10.52;;;;;;;20.05;49.63;97171.91;10522903;28;20048;-54
2022/12/02 19:10:28;;;;;;;21.23;9.50;;;;;;;20.03;49.71;97170.59;10504668;28;20048;-54
2022/12/02 19:15:48;;;;;;;14.13;8.07;;;;;;;20.01;49.84;97170.13;10506324;28;20052;-52
2022/12/02 19:21:07;;;;;;;15.80;7.93;;;;;;;20.00;49.88;97165.84;10556003;28;20044;-54
2022/12/02 19:26:27;;;;;;;14.15;8.30;;;;;;;19.99;49.80;97170.44;10532565;28;20116;-54
2022/12/02 19:31:46;;;;;;;12.88;7.63;;;;;;;19.98;49.71;97168.06;10539060;28;20048;-52
2022/12/02 19:37:06;;;;;;;13.35;7.30;;;;;;;19.94;49.85;97170.63;10536744;28;20056;-54
2022/12/02 19:42:25;;;;;;;10.05;6.55;;;;;;;19.93;50.06;97169.84;10554493;28;20048;-53
2022/12/02 19:47:45;;;;;;;11.10;6.53;;;;;;;19.92;50.10;97172.84;10538639;28;20052;-54
2022/12/02 19:53:05;;;;;;;10.75;6.82;;;;;;;19.92;50.08;97178.25;10523417;28;20063;-53
2022/12/02 19:58:24;;;;;;;10.63;6.28;;;;;;;19.89;50.13;97185.06;10536260;28;20515;-53
2022/12/02 20:03:44;;;;;;;11.25;5.85;;;;;;;19.88;50.06;97186.19;10522287;28;20052;-54
2022/12/02 20:09:03;;;;;;;8.73;6.13;;;;;;;19.86;50.52;97187.63;10536846;28;20048;-54
2022/12/02 20:14:23;;;;;;;8.40;6.32;;;;;;;19.85;50.62;97184.13;10530028;28;20446;-53
2022/12/02 20:19:43;;;;;;;9.45;5.88;;;;;;;19.83;50.72;97194.44;10553894;28;20044;-54
2022/12/02 20:25:03;;;;;;;8.15;5.68;;;;;;;19.82;50.50;97186.69;10528886;28;20062;-53
2022/12/02 20:30:22;;;;;;;6.20;5.45;;;;;;;19.80;50.42;97189.69;10531633;28;20044;-52
2022/12/02 20:35:43;;;;;;;6.38;5.40;;;;;;;19.77;50.51;97187.59;10540159;28;20059;-54
2022/12/02 20:41:03;;;;;;;7.63;4.85;;;;;;;19.77;50.68;97186.81;10539394;28;20060;-54
2022/12/02 20:46:23;;;;;;;6.57;5.18;;;;;;;19.74;50.71;97186.34;10539113;28;20063;-53
2022/12/02 20:51:43;;;;;;;8.32;5.82;;;;;;;19.72;50.45;97179.66;10533371;28;20052;-54
2022/12/02 20:57:02;;;;;;;6.82;5.30;;;;;;;19.72;50.59;97176.97;10537243;28;20059;-53
2022/12/02 21:02:22;;;;;;;6.80;5.25;;;;;;;19.70;50.58;97176.47;10538824;28;20109;-53
2022/12/02 21:07:41;;;;;;;6.50;4.85;;;;;;;19.69;50.89;97180.25;10538551;28;20055;-53
2022/12/02 21:13:03;;;;;;;6.05;4.75;;;;;;;19.67;50.62;97171.66;10538372;28;20553;-53
2022/12/02 21:18:25;;;;;;;6.32;4.95;;;;;;;19.65;50.78;97174.69;10528423;28;20059;-52
2022/12/02 21:23:46;;;;;;;6.15;4.60;;;;;;;19.64;51.10;97175.81;10538670;28;20059;-53
2022/12/02 21:29:09;;;;;;;5.63;4.80;;;;;;;19.62;50.92;97171.81;10538082;28;20433;-52
2022/12/02 21:34:28;;;;;;;5.93;4.75;;;;;;;19.61;51.03;97172.94;10539909;28;20529;-53
2022/12/02 21:39:48;;;;;;;6.15;4.45;;;;;;;19.60;50.88;97177.56;10551690;28;20044;-53
2022/12/02 21:45:08;;;;;;;4.82;4.25;;;;;;;19.58;50.92;97174.34;10551559;28;20491;-53
2022/12/02 21:50:28;;;;;;;5.30;4.30;;;;;;;19.56;50.90;97180.09;10536436;28;20499;-53
2022/12/02 21:55:48;;;;;;;5.10;4.50;;;;;;;19.55;51.05;97166.88;10527790;28;20052;-53
2022/12/02 22:06:46;;;;;;;4.75;4.28;;;;;;;19.52;51.19;97173.72;10537593;28;20446;-54
2022/12/02 22:12:06;;;;;;;5.53;4.55;;;;;;;19.51;51.39;97174.03;10537349;28;20052;-53
2022/12/02 22:17:26;;;;;;;5.68;4.70;;;;;;;19.49;51.38;97171.63;10545355;28;20059;-53
2022/12/02 22:22:46;;;;;;;5.15;4.50;;;;;;;19.48;51.22;97178.16;10559152;28;20051;-54
2022/12/02 22:28:06;;;;;;;4.50;4.10;;;;;;;19.46;51.27;97174.16;10536064;28;20046;-53
2022/12/02 22:33:29;;;;;;;5.10;4.38;;;;;;;19.44;51.24;97174.47;10558682;28;20044;-53
2022/12/02 22:38:48;;;;;;;4.57;4.18;;;;;;;19.43;51.28;97178.28;10558736;28;20491;-53
2022/12/02 22:44:08;;;;;;;4.93;4.43;;;;;;;19.42;51.45;97181.31;10531774;28;20052;-52
2022/12/02 22:49:27;;;;;;;4.68;4.25;;;;;;;19.41;51.57;97179.72;10558452;28;20541;-53
2022/12/02 22:54:47;;;;;;;4.78;4.00;;;;;;;19.38;51.34;97166.84;10543286;28;20131;-49
2022/12/02 23:00:08;;;;;;;4.30;3.90;;;;;;;19.38;51.03;97167.63;10528237;28;20428;-52
2022/12/02 23:05:28;;;;;;;4.95;4.25;;;;;;;19.37;51.09;97171.44;10491071;28;20058;-52
2022/12/02 23:10:47;;;;;;;4.63;4.10;;;;;;;19.35;51.17;97170.97;10501786;28;20403;-53
2022/12/02 23:16:06;;;;;;;4.65;4.22;;;;;;;19.33;51.23;97175.88;10501043;28;20511;-55
2022/12/02 23:21:26;;;;;;;4.43;4.03;;;;;;;19.33;51.01;97167.78;10488639;28;20067;-54
2022/12/02 23:26:46;;;;;;;5.07;4.07;;;;;;;19.32;50.95;97174.28;10499921;28;20086;-53
2022/12/02 23:32:05;;;;;;;4.32;3.92;;;;;;;19.31;51.32;97170.78;10500574;28;20059;-53
2022/12/02 23:37:24;;;;;;;5.70;3.90;;;;;;;19.29;51.08;97172.22;10500659;28;20054;-54
2022/12/02 23:42:44;;;;;;;4.82;4.35;;;;;;;19.27;51.27;97163.63;10513922;28;20040;-53
2022/12/02 23:48:04;;;;;;;5.15;3.83;;;;;;;19.27;51.19;97164.44;10498754;28;20056;-54
2022/12/02 23:53:24;;;;;;;3.90;3.45;;;;;;;19.26;51.52;97165.53;10499164;28;20522;-54
2022/12/02 23:58:45;;;;;;;6.20;3.90;;;;;;;19.24;51.19;97156.16;10503397;28;20067;-54
